sensor_id;sensor_type;location;lat;lon;timestamp;pressure;altitude;pressure_sealevel;temperature;humidity
50292;BME280;36190;54.980;73.388;2024-02-21T00:00:36;103262.94;;;-23.43;59.86
50292;BME280;36190;54.980;73.388;2024-02-21T00:03:05;103263.84;;;-23.43;59.62
50292;BME280;36190;54.980;73.388;2024-02-21T00:05:33;103251.97;;;-23.44;59.68
50292;BME280;36190;54.980;73.388;2024-02-21T00:08:01;103267.34;;;-23.41;59.84
50292;BME280;36190;54.980;73.388;2024-02-21T00:10:29;103263.06;;;-23.42;59.85
50292;BME280;36190;54.980;73.388;2024-02-21T00:12:57;103253.09;;;-23.40;59.83
50292;BME280;36190;54.980;73.388;2024-02-21T00:15:25;103249.78;;;-23.39;59.89
50292;BME280;36190;54.980;73.388;2024-02-21T00:17:53;103255.72;;;-23.39;59.78
50292;BME280;36190;54.980;73.388;2024-02-21T00:20:22;103255.63;;;-23.40;59.86
50292;BME280;36190;54.980;73.388;2024-02-21T00:22:51;103249.44;;;-23.44;59.85
50292;BME280;36190;54.980;73.388;2024-02-21T00:25:19;103260.06;;;-23.48;59.78
50292;BME280;36190;54.980;73.388;2024-02-21T00:27:47;103255.91;;;-23.47;60.02
50292;BME280;36190;54.980;73.388;2024-02-21T00:30:15;103248.41;;;-23.46;59.94
50292;BME280;36190;54.980;73.388;2024-02-21T00:32:42;103247.69;;;-23.45;59.89
50292;BME280;36190;54.980;73.388;2024-02-21T00:35:10;103255.91;;;-23.47;60.07
50292;BME280;36190;54.980;73.388;2024-02-21T00:37:39;103252.38;;;-23.49;59.94
50292;BME280;36190;54.980;73.388;2024-02-21T00:40:08;103253.88;;;-23.52;59.95
50292;BME280;36190;54.980;73.388;2024-02-21T00:42:36;103252.91;;;-23.54;60.08
50292;BME280;36190;54.980;73.388;2024-02-21T00:45:04;103245.09;;;-23.57;59.97
50292;BME280;36190;54.980;73.388;2024-02-21T00:47:32;103250.38;;;-23.54;60.08
50292;BME280;36190;54.980;73.388;2024-02-21T00:50:00;103246.72;;;-23.57;60.06
50292;BME280;36190;54.980;73.388;2024-02-21T00:52:27;103250.88;;;-23.58;60.03
50292;BME280;36190;54.980;73.388;2024-02-21T00:54:57;103244.06;;;-23.59;60.22
50292;BME280;36190;54.980;73.388;2024-02-21T00:57:24;103245.97;;;-23.56;60.17
50292;BME280;36190;54.980;73.388;2024-02-21T00:59:52;103237.50;;;-23.57;60.11
50292;BME280;36190;54.980;73.388;2024-02-21T01:02:19;103230.31;;;-23.62;60.10
50292;BME280;36190;54.980;73.388;2024-02-21T01:04:47;103235.03;;;-23.67;60.20
50292;BME280;36190;54.980;73.388;2024-02-21T01:07:15;103233.16;;;-23.70;60.19
50292;BME280;36190;54.980;73.388;2024-02-21T01:09:42;103226.22;;;-23.72;60.14
50292;BME280;36190;54.980;73.388;2024-02-21T01:12:12;103223.44;;;-23.75;60.17
50292;BME280;36190;54.980;73.388;2024-02-21T01:14:39;103219.06;;;-23.78;60.15
50292;BME280;36190;54.980;73.388;2024-02-21T01:17:07;103222.31;;;-23.79;60.27
50292;BME280;36190;54.980;73.388;2024-02-21T01:19:35;103222.44;;;-23.77;60.38
50292;BME280;36190;54.980;73.388;2024-02-21T01:22:03;103216.63;;;-23.76;60.53
50292;BME280;36190;54.980;73.388;2024-02-21T01:24:31;103220.91;;;-23.75;60.43
50292;BME280;36190;54.980;73.388;2024-02-21T01:26:59;103223.44;;;-23.75;60.47
50292;BME280;36190;54.980;73.388;2024-02-21T01:29:28;103218.66;;;-23.72;60.41
50292;BME280;36190;54.980;73.388;2024-02-21T01:31:56;103224.56;;;-23.72;60.40
50292;BME280;36190;54.980;73.388;2024-02-21T01:34:23;103221.94;;;-23.73;60.50
50292;BME280;36190;54.980;73.388;2024-02-21T01:36:51;103222.81;;;-23.73;60.36
50292;BME280;36190;54.980;73.388;2024-02-21T01:39:19;103218.38;;;-23.75;60.33
50292;BME280;36190;54.980;73.388;2024-02-21T01:41:46;103217.28;;;-23.79;60.40
50292;BME280;36190;54.980;73.388;2024-02-21T01:44:14;103211.34;;;-23.80;60.45
50292;BME280;36190;54.980;73.388;2024-02-21T01:46:44;103216.41;;;-23.80;60.56
50292;BME280;36190;54.980;73.388;2024-02-21T01:49:11;103216.41;;;-23.80;60.62
50292;BME280;36190;54.980;73.388;2024-02-21T01:51:39;103217.28;;;-23.79;60.58
50292;BME280;36190;54.980;73.388;2024-02-21T01:54:07;103214.66;;;-23.81;60.71
50292;BME280;36190;54.980;73.388;2024-02-21T01:56:35;103214.66;;;-23.81;60.57
50292;BME280;36190;54.980;73.388;2024-02-21T01:59:03;103205.31;;;-23.82;60.68
50292;BME280;36190;54.980;73.388;2024-02-21T02:01:31;103209.59;;;-23.81;60.76
50292;BME280;36190;54.980;73.388;2024-02-21T02:04:01;103209.59;;;-23.81;60.75
50292;BME280;36190;54.980;73.388;2024-02-21T02:06:31;103204.53;;;-23.81;60.69
50292;BME280;36190;54.980;73.388;2024-02-21T02:08:58;103200.63;;;-23.77;60.74
50292;BME280;36190;54.980;73.388;2024-02-21T02:11:26;103207.53;;;-23.74;60.76
50292;BME280;36190;54.980;73.388;2024-02-21T02:13:54;103208.53;;;-23.72;60.84
50292;BME280;36190;54.980;73.388;2024-02-21T02:16:22;103201.97;;;-23.70;60.81
50292;BME280;36190;54.980;73.388;2024-02-21T02:18:49;103202.84;;;-23.70;60.77
50292;BME280;36190;54.980;73.388;2024-02-21T02:21:27;103204.81;;;-23.66;60.79
50292;BME280;36190;54.980;73.388;2024-02-21T02:23:57;103207.06;;;-23.58;60.89
50292;BME280;36190;54.980;73.388;2024-02-21T02:26:26;103211.69;;;-23.53;60.88
50292;BME280;36190;54.980;73.388;2024-02-21T02:28:54;103201.84;;;-23.49;60.85
50292;BME280;36190;54.980;73.388;2024-02-21T02:31:22;103200.53;;;-23.44;60.83
50292;BME280;36190;54.980;73.388;2024-02-21T02:33:49;103196.72;;;-23.39;60.80
50292;BME280;36190;54.980;73.388;2024-02-21T02:36:17;103194.66;;;-23.33;60.78
50292;BME280;36190;54.980;73.388;2024-02-21T02:38:45;103197.72;;;-23.25;60.65
50292;BME280;36190;54.980;73.388;2024-02-21T02:41:14;103200.56;;;-23.20;60.59
50292;BME280;36190;54.980;73.388;2024-02-21T02:43:42;103201.81;;;-23.15;60.59
50292;BME280;36190;54.980;73.388;2024-02-21T02:46:09;103199.50;;;-23.12;60.60
50292;BME280;36190;54.980;73.388;2024-02-21T02:48:37;103207.44;;;-23.07;60.56
50292;BME280;36190;54.980;73.388;2024-02-21T02:51:05;103207.00;;;-23.02;60.47
50292;BME280;36190;54.980;73.388;2024-02-21T02:53:33;103204.16;;;-22.94;60.30
50292;BME280;36190;54.980;73.388;2024-02-21T02:56:00;103201.09;;;-22.90;60.41
50292;BME280;36190;54.980;73.388;2024-02-21T02:58:30;103211.13;;;-22.80;60.13
50292;BME280;36190;54.980;73.388;2024-02-21T03:00:57;103204.41;;;-22.79;60.18
50292;BME280;36190;54.980;73.388;2024-02-21T03:03:25;103203.22;;;-22.73;60.00
50292;BME280;36190;54.980;73.388;2024-02-21T03:05:53;103204.84;;;-22.61;60.13
50292;BME280;36190;54.980;73.388;2024-02-21T03:08:20;103197.34;;;-22.48;59.95
50292;BME280;36190;54.980;73.388;2024-02-21T03:10:48;103203.28;;;-22.35;59.88
50292;BME280;36190;54.980;73.388;2024-02-21T03:13:16;103212.09;;;-22.30;59.70
50292;BME280;36190;54.980;73.388;2024-02-21T03:15:45;103209.91;;;-22.25;59.47
50292;BME280;36190;54.980;73.388;2024-02-21T03:18:13;103209.34;;;-22.21;59.45
50292;BME280;36190;54.980;73.388;2024-02-21T03:20:41;103199.88;;;-22.12;59.37
50292;BME280;36190;54.980;73.388;2024-02-21T03:23:09;103204.69;;;-22.03;59.27
50292;BME280;36190;54.980;73.388;2024-02-21T03:25:36;103198.31;;;-21.98;59.21
50292;BME280;36190;54.980;73.388;2024-02-21T03:28:04;103199.50;;;-21.93;58.94
50292;BME280;36190;54.980;73.388;2024-02-21T03:30:32;103195.44;;;-21.91;58.89
50292;BME280;36190;54.980;73.388;2024-02-21T03:33:02;103199.16;;;-21.86;58.68
50292;BME280;36190;54.980;73.388;2024-02-21T03:35:29;103196.84;;;-21.82;58.59
50292;BME280;36190;54.980;73.388;2024-02-21T03:37:57;103193.97;;;-21.75;58.56
50292;BME280;36190;54.980;73.388;2024-02-21T03:40:25;103193.38;;;-21.71;58.29
50292;BME280;36190;54.980;73.388;2024-02-21T03:42:53;103199.16;;;-21.60;58.38
50292;BME280;36190;54.980;73.388;2024-02-21T03:45:20;103200.66;;;-21.50;58.24
50292;BME280;36190;54.980;73.388;2024-02-21T03:47:48;103200.75;;;-21.37;58.20
50292;BME280;36190;54.980;73.388;2024-02-21T03:50:17;103192.97;;;-21.26;57.94
50292;BME280;36190;54.980;73.388;2024-02-21T03:52:45;103194.34;;;-21.18;57.85
50292;BME280;36190;54.980;73.388;2024-02-21T03:55:13;103189.69;;;-21.12;57.73
50292;BME280;36190;54.980;73.388;2024-02-21T03:57:40;103183.16;;;-21.08;57.55
50292;BME280;36190;54.980;73.388;2024-02-21T04:00:09;103185.41;;;-20.99;57.50
50292;BME280;36190;54.980;73.388;2024-02-21T04:02:38;103185.53;;;-20.84;57.54
50292;BME280;36190;54.980;73.388;2024-02-21T04:05:06;103185.63;;;-20.69;57.40
50292;BME280;36190;54.980;73.388;2024-02-21T04:07:38;103177.34;;;-20.53;57.19
50292;BME280;36190;54.980;73.388;2024-02-21T04:10:06;103179.78;;;-20.41;57.03
50292;BME280;36190;54.980;73.388;2024-02-21T04:12:34;103177.13;;;-20.29;56.86
50292;BME280;36190;54.980;73.388;2024-02-21T04:15:04;103170.78;;;-20.23;56.82
50292;BME280;36190;54.980;73.388;2024-02-21T04:17:32;103172.03;;;-20.16;56.55
50292;BME280;36190;54.980;73.388;2024-02-21T04:20:03;103167.25;;;-20.11;56.39
50292;BME280;36190;54.980;73.388;2024-02-21T04:22:33;103163.91;;;-20.10;56.33
50292;BME280;36190;54.980;73.388;2024-02-21T04:25:03;103165.28;;;-20.02;56.10
50292;BME280;36190;54.980;73.388;2024-02-21T04:27:31;103173.28;;;-19.96;55.96
50292;BME280;36190;54.980;73.388;2024-02-21T04:29:58;103175.38;;;-19.88;55.94
50292;BME280;36190;54.980;73.388;2024-02-21T04:32:26;103179.28;;;-19.80;55.93
50292;BME280;36190;54.980;73.388;2024-02-21T04:34:54;103165.88;;;-19.78;55.90
50292;BME280;36190;54.980;73.388;2024-02-21T04:37:22;103165.25;;;-19.73;55.85
50292;BME280;36190;54.980;73.388;2024-02-21T04:39:50;103160.63;;;-19.66;55.88
50292;BME280;36190;54.980;73.388;2024-02-21T04:42:19;103158.66;;;-19.56;55.76
50292;BME280;36190;54.980;73.388;2024-02-21T04:44:47;103161.53;;;-19.50;55.74
50292;BME280;36190;54.980;73.388;2024-02-21T04:47:15;103160.16;;;-19.45;55.77
50292;BME280;36190;54.980;73.388;2024-02-21T04:49:42;103161.41;;;-19.38;55.68
50292;BME280;36190;54.980;73.388;2024-02-21T04:52:10;103153.97;;;-19.35;55.58
50292;BME280;36190;54.980;73.388;2024-02-21T04:54:38;103157.56;;;-19.31;55.62
50292;BME280;36190;54.980;73.388;2024-02-21T04:57:05;103153.00;;;-19.22;55.61
50292;BME280;36190;54.980;73.388;2024-02-21T04:59:35;103157.94;;;-19.10;55.52
50292;BME280;36190;54.980;73.388;2024-02-21T05:02:02;103154.69;;;-19.08;55.38
50292;BME280;36190;54.980;73.388;2024-02-21T05:04:30;103151.16;;;-19.10;55.38
50292;BME280;36190;54.980;73.388;2024-02-21T05:07:00;103166.53;;;-19.08;55.30
50292;BME280;36190;54.980;73.388;2024-02-21T05:09:28;103154.06;;;-19.03;55.40
50292;BME280;36190;54.980;73.388;2024-02-21T05:11:56;103152.00;;;-18.94;55.51
50292;BME280;36190;54.980;73.388;2024-02-21T05:14:26;103145.69;;;-18.86;55.33
50292;BME280;36190;54.980;73.388;2024-02-21T05:16:55;103149.38;;;-18.81;55.28
50292;BME280;36190;54.980;73.388;2024-02-21T05:19:23;103150.69;;;-18.72;55.25
50292;BME280;36190;54.980;73.388;2024-02-21T05:21:50;103150.94;;;-18.68;55.12
50292;BME280;36190;54.980;73.388;2024-02-21T05:24:18;103151.31;;;-18.61;55.05
50292;BME280;36190;54.980;73.388;2024-02-21T05:26:46;103141.53;;;-18.54;55.16
50292;BME280;36190;54.980;73.388;2024-02-21T05:29:13;103138.44;;;-18.48;54.82
50292;BME280;36190;54.980;73.388;2024-02-21T05:31:56;103136.41;;;-18.39;54.78
50292;BME280;36190;54.980;73.388;2024-02-21T05:34:25;103144.47;;;-18.31;54.91
50292;BME280;36190;54.980;73.388;2024-02-21T05:36:55;103134.53;;;-18.26;54.77
50292;BME280;36190;54.980;73.388;2024-02-21T05:39:23;103135.31;;;-18.27;54.55
50292;BME280;36190;54.980;73.388;2024-02-21T05:41:51;103125.47;;;-18.21;54.57
50292;BME280;36190;54.980;73.388;2024-02-21T05:44:18;103135.06;;;-18.32;54.46
50292;BME280;36190;54.980;73.388;2024-02-21T05:46:48;103111.63;;;-18.41;54.60
50292;BME280;36190;54.980;73.388;2024-02-21T05:49:17;103133.09;;;-18.21;54.70
50292;BME280;36190;54.980;73.388;2024-02-21T05:51:45;103129.66;;;-18.21;54.57
50292;BME280;36190;54.980;73.388;2024-02-21T05:54:13;103141.56;;;-18.22;54.42
50292;BME280;36190;54.980;73.388;2024-02-21T05:56:44;103132.78;;;-18.27;54.34
50292;BME280;36190;54.980;73.388;2024-02-21T05:59:13;103140.78;;;-18.36;54.37
50292;BME280;36190;54.980;73.388;2024-02-21T06:01:40;103140.72;;;-18.37;54.26
50292;BME280;36190;54.980;73.388;2024-02-21T06:04:08;103138.91;;;-18.23;54.53
50292;BME280;36190;54.980;73.388;2024-02-21T06:06:37;103130.09;;;-18.14;54.42
50292;BME280;36190;54.980;73.388;2024-02-21T06:09:05;103137.09;;;-18.09;54.33
50292;BME280;36190;54.980;73.388;2024-02-21T06:11:33;103138.84;;;-18.08;54.22
50292;BME280;36190;54.980;73.388;2024-02-21T06:14:03;103143.25;;;-18.06;54.32
50292;BME280;36190;54.980;73.388;2024-02-21T06:16:31;103144.59;;;-17.96;54.17
50292;BME280;36190;54.980;73.388;2024-02-21T06:18:58;103133.81;;;-17.90;54.06
50292;BME280;36190;54.980;73.388;2024-02-21T06:21:29;103133.75;;;-17.75;54.08
50292;BME280;36190;54.980;73.388;2024-02-21T06:23:58;103133.69;;;-17.60;54.12
50292;BME280;36190;54.980;73.388;2024-02-21T06:26:26;103130.47;;;-17.56;53.90
50292;BME280;36190;54.980;73.388;2024-02-21T06:28:54;103137.50;;;-17.52;53.91
50292;BME280;36190;54.980;73.388;2024-02-21T06:31:21;103140.53;;;-17.43;53.79
50292;BME280;36190;54.980;73.388;2024-02-21T06:33:49;103131.91;;;-17.45;53.70
50292;BME280;36190;54.980;73.388;2024-02-21T06:36:17;103138.84;;;-17.42;53.54
50292;BME280;36190;54.980;73.388;2024-02-21T06:38:44;103129.50;;;-17.42;53.52
50292;BME280;36190;54.980;73.388;2024-02-21T06:41:16;103122.00;;;-17.38;53.61
50292;BME280;36190;54.980;73.388;2024-02-21T06:43:44;103125.59;;;-17.35;53.45
50292;BME280;36190;54.980;73.388;2024-02-21T06:46:12;103133.00;;;-17.39;53.38
50292;BME280;36190;54.980;73.388;2024-02-21T06:48:49;103129.03;;;-17.51;53.29
50292;BME280;36190;54.980;73.388;2024-02-21T06:51:17;103131.41;;;-17.54;53.25
50292;BME280;36190;54.980;73.388;2024-02-21T06:53:45;103125.69;;;-17.50;53.35
50292;BME280;36190;54.980;73.388;2024-02-21T06:56:12;103128.63;;;-17.42;53.34
50292;BME280;36190;54.980;73.388;2024-02-21T06:58:42;103122.22;;;-17.34;53.30
50292;BME280;36190;54.980;73.388;2024-02-21T07:01:10;103137.00;;;-17.28;53.27
50292;BME280;36190;54.980;73.388;2024-02-21T07:03:38;103127.88;;;-17.23;53.22
50292;BME280;36190;54.980;73.388;2024-02-21T07:06:06;103119.59;;;-17.19;53.04
50292;BME280;36190;54.980;73.388;2024-02-21T07:08:33;103113.81;;;-17.15;53.03
50292;BME280;36190;54.980;73.388;2024-02-21T07:11:01;103115.34;;;-17.00;53.12
50292;BME280;36190;54.980;73.388;2024-02-21T07:13:29;103109.88;;;-16.90;53.04
50292;BME280;36190;54.980;73.388;2024-02-21T07:15:58;103104.66;;;-16.75;52.90
50292;BME280;36190;54.980;73.388;2024-02-21T07:18:26;103101.63;;;-16.66;53.18
50292;BME280;36190;54.980;73.388;2024-02-21T07:20:54;103102.28;;;-16.52;52.91
50292;BME280;36190;54.980;73.388;2024-02-21T07:23:22;103099.94;;;-16.47;52.72
50292;BME280;36190;54.980;73.388;2024-02-21T07:25:50;103101.09;;;-16.40;52.55
50292;BME280;36190;54.980;73.388;2024-02-21T07:28:18;103092.50;;;-16.42;52.54
50292;BME280;36190;54.980;73.388;2024-02-21T07:30:45;103102.34;;;-16.50;52.47
50292;BME280;36190;54.980;73.388;2024-02-21T07:33:15;103094.56;;;-16.53;52.43
50292;BME280;36190;54.980;73.388;2024-02-21T07:35:42;103092.94;;;-16.51;52.39
50292;BME280;36190;54.980;73.388;2024-02-21T07:38:10;103091.63;;;-16.43;52.27
50292;BME280;36190;54.980;73.388;2024-02-21T07:40:38;103083.56;;;-16.33;52.08
50292;BME280;36190;54.980;73.388;2024-02-21T07:43:06;103089.69;;;-16.29;52.00
50292;BME280;36190;54.980;73.388;2024-02-21T07:45:34;103077.84;;;-16.27;51.95
50292;BME280;36190;54.980;73.388;2024-02-21T07:48:02;103089.38;;;-16.17;51.84
50292;BME280;36190;54.980;73.388;2024-02-21T07:50:31;103088.31;;;-16.02;51.82
50292;BME280;36190;54.980;73.388;2024-02-21T07:52:59;103082.75;;;-15.94;51.80
50292;BME280;36190;54.980;73.388;2024-02-21T07:55:27;103082.22;;;-15.85;51.47
50292;BME280;36190;54.980;73.388;2024-02-21T07:57:55;103075.09;;;-15.72;51.61
50292;BME280;36190;54.980;73.388;2024-02-21T08:00:22;103079.25;;;-15.55;51.49
50292;BME280;36190;54.980;73.388;2024-02-21T08:02:50;103082.19;;;-15.45;51.37
50292;BME280;36190;54.980;73.388;2024-02-21T08:05:18;103087.56;;;-15.39;51.22
50292;BME280;36190;54.980;73.388;2024-02-21T08:07:48;103084.22;;;-15.37;51.12
50292;BME280;36190;54.980;73.388;2024-02-21T08:10:16;103087.81;;;-15.33;51.16
50292;BME280;36190;54.980;73.388;2024-02-21T08:12:44;103073.50;;;-15.28;51.11
50292;BME280;36190;54.980;73.388;2024-02-21T08:15:11;103076.34;;;-15.22;51.05
50292;BME280;36190;54.980;73.388;2024-02-21T08:17:39;103087.22;;;-15.27;50.82
50292;BME280;36190;54.980;73.388;2024-02-21T08:20:08;103082.75;;;-15.31;50.94
50292;BME280;36190;54.980;73.388;2024-02-21T08:22:37;103086.44;;;-15.25;50.64
50292;BME280;36190;54.980;73.388;2024-02-21T08:25:07;103084.56;;;-15.29;50.40
50292;BME280;36190;54.980;73.388;2024-02-21T08:27:34;103082.81;;;-15.30;50.49
50292;BME280;36190;54.980;73.388;2024-02-21T08:30:01;103073.44;;;-15.08;50.62
50292;BME280;36190;54.980;73.388;2024-02-21T08:32:29;103084.81;;;-14.80;50.57
50292;BME280;36190;54.980;73.388;2024-02-21T08:34:57;103080.19;;;-14.66;50.25
50292;BME280;36190;54.980;73.388;2024-02-21T08:37:24;103075.38;;;-14.58;50.12
50292;BME280;36190;54.980;73.388;2024-02-21T08:39:54;103073.16;;;-14.49;49.97
50292;BME280;36190;54.980;73.388;2024-02-21T08:42:23;103074.53;;;-14.34;49.69
50292;BME280;36190;54.980;73.388;2024-02-21T08:44:51;103054.25;;;-14.28;49.59
50292;BME280;36190;54.980;73.388;2024-02-21T08:47:19;103072.19;;;-14.05;49.48
50292;BME280;36190;54.980;73.388;2024-02-21T08:49:46;103072.84;;;-14.11;49.39
50292;BME280;36190;54.980;73.388;2024-02-21T08:52:14;103069.78;;;-14.01;49.33
50292;BME280;36190;54.980;73.388;2024-02-21T08:54:42;103073.81;;;-13.83;49.28
50292;BME280;36190;54.980;73.388;2024-02-21T08:57:10;103075.03;;;-13.73;48.88
50292;BME280;36190;54.980;73.388;2024-02-21T08:59:41;103076.22;;;-13.63;48.87
50292;BME280;36190;54.980;73.388;2024-02-21T09:02:08;103072.84;;;-13.62;48.49
50292;BME280;36190;54.980;73.388;2024-02-21T09:04:36;103076.31;;;-13.60;48.52
50292;BME280;36190;54.980;73.388;2024-02-21T09:07:04;103080.91;;;-13.51;48.62
50292;BME280;36190;54.980;73.388;2024-02-21T09:09:32;103062.47;;;-13.38;48.42
50292;BME280;36190;54.980;73.388;2024-02-21T09:12:00;103069.19;;;-13.43;48.12
50292;BME280;36190;54.980;73.388;2024-02-21T09:14:31;103057.44;;;-13.62;47.98
50292;BME280;36190;54.980;73.388;2024-02-21T09:17:01;103073.91;;;-13.56;48.07
50292;BME280;36190;54.980;73.388;2024-02-21T09:19:28;103079.94;;;-13.55;47.88
50292;BME280;36190;54.980;73.388;2024-02-21T09:21:56;103070.34;;;-13.61;47.70
50292;BME280;36190;54.980;73.388;2024-02-21T09:24:24;103072.16;;;-13.57;47.82
50292;BME280;36190;54.980;73.388;2024-02-21T09:26:52;103054.13;;;-13.58;47.77
50292;BME280;36190;54.980;73.388;2024-02-21T09:29:19;103070.00;;;-13.70;47.52
50292;BME280;36190;54.980;73.388;2024-02-21T09:31:47;103072.53;;;-13.72;47.52
50292;BME280;36190;54.980;73.388;2024-02-21T09:34:16;103078.84;;;-13.62;47.38
50292;BME280;36190;54.980;73.388;2024-02-21T09:36:44;103081.53;;;-13.59;47.30
50292;BME280;36190;54.980;73.388;2024-02-21T09:39:12;103072.38;;;-13.50;47.50
50292;BME280;36190;54.980;73.388;2024-02-21T09:41:47;103070.84;;;-13.45;47.21
50292;BME280;36190;54.980;73.388;2024-02-21T09:44:16;103077.22;;;-13.60;46.98
50292;BME280;36190;54.980;73.388;2024-02-21T09:46:50;103070.16;;;-13.90;46.72
50292;BME280;36190;54.980;73.388;2024-02-21T09:49:29;103079.53;;;-13.92;46.79
50292;BME280;36190;54.980;73.388;2024-02-21T09:52:00;103059.09;;;-13.89;47.07
50292;BME280;36190;54.980;73.388;2024-02-21T09:54:29;103068.00;;;-13.79;46.88
50292;BME280;36190;54.980;73.388;2024-02-21T09:56:57;103070.34;;;-13.85;46.45
50292;BME280;36190;54.980;73.388;2024-02-21T09:59:26;103068.25;;;-13.96;46.67
50292;BME280;36190;54.980;73.388;2024-02-21T10:01:55;103057.94;;;-13.97;46.63
50292;BME280;36190;54.980;73.388;2024-02-21T10:04:24;103065.53;;;-13.76;46.73
50292;BME280;36190;54.980;73.388;2024-02-21T10:06:52;103070.44;;;-13.58;46.80
50292;BME280;36190;54.980;73.388;2024-02-21T10:09:21;103075.06;;;-13.47;46.58
50292;BME280;36190;54.980;73.388;2024-02-21T10:11:50;103066.78;;;-13.37;46.51
50292;BME280;36190;54.980;73.388;2024-02-21T10:14:18;103071.53;;;-13.23;46.38
50292;BME280;36190;54.980;73.388;2024-02-21T10:16:46;103068.03;;;-13.26;46.34
50292;BME280;36190;54.980;73.388;2024-02-21T10:19:18;103065.69;;;-13.19;46.26
50292;BME280;36190;54.980;73.388;2024-02-21T10:22:01;103065.56;;;-13.22;45.84
50292;BME280;36190;54.980;73.388;2024-02-21T10:24:30;103069.03;;;-13.22;46.26
50292;BME280;36190;54.980;73.388;2024-02-21T10:27:05;103072.09;;;-13.06;46.19
50292;BME280;36190;54.980;73.388;2024-02-21T10:29:34;103075.28;;;-13.14;46.21
50292;BME280;36190;54.980;73.388;2024-02-21T10:32:06;103079.69;;;-13.09;46.12
50292;BME280;36190;54.980;73.388;2024-02-21T10:34:34;103084.16;;;-13.04;46.14
50292;BME280;36190;54.980;73.388;2024-02-21T10:37:05;103081.63;;;-13.02;45.92
50292;BME280;36190;54.980;73.388;2024-02-21T10:39:34;103078.91;;;-13.07;45.97
50292;BME280;36190;54.980;73.388;2024-02-21T10:42:03;103080.38;;;-13.15;45.98
50292;BME280;36190;54.980;73.388;2024-02-21T10:44:32;103059.41;;;-13.28;45.99
50292;BME280;36190;54.980;73.388;2024-02-21T10:47:00;103084.94;;;-13.06;46.01
50292;BME280;36190;54.980;73.388;2024-02-21T10:49:32;103080.44;;;-13.12;45.75
50292;BME280;36190;54.980;73.388;2024-02-21T10:52:06;103080.00;;;-13.26;45.57
50292;BME280;36190;54.980;73.388;2024-02-21T10:54:42;103083.16;;;-13.35;45.67
50292;BME280;36190;54.980;73.388;2024-02-21T10:57:13;103073.66;;;-13.37;45.81
50292;BME280;36190;54.980;73.388;2024-02-21T10:59:41;103079.84;;;-13.31;45.91
50292;BME280;36190;54.980;73.388;2024-02-21T11:02:10;103071.13;;;-13.36;45.68
50292;BME280;36190;54.980;73.388;2024-02-21T11:04:39;103081.84;;;-13.49;45.47
50292;BME280;36190;54.980;73.388;2024-02-21T11:07:09;103072.69;;;-13.67;45.53
50292;BME280;36190;54.980;73.388;2024-02-21T11:09:37;103072.47;;;-13.73;45.67
50292;BME280;36190;54.980;73.388;2024-02-21T11:12:06;103061.47;;;-13.69;45.79
50292;BME280;36190;54.980;73.388;2024-02-21T11:14:34;103071.28;;;-13.57;45.76
50292;BME280;36190;54.980;73.388;2024-02-21T11:17:14;103022.09;;;-13.94;45.27
50292;BME280;36190;54.980;73.388;2024-02-21T11:19:42;103069.59;;;-13.57;45.49
50292;BME280;36190;54.980;73.388;2024-02-21T11:22:16;103068.06;;;-13.51;45.41
50292;BME280;36190;54.980;73.388;2024-02-21T11:24:44;103058.81;;;-13.46;45.45
50292;BME280;36190;54.980;73.388;2024-02-21T11:27:13;103063.75;;;-13.52;45.26
50292;BME280;36190;54.980;73.388;2024-02-21T11:29:43;103068.31;;;-13.70;45.18
50292;BME280;36190;54.980;73.388;2024-02-21T11:32:10;103064.22;;;-13.89;45.17
50292;BME280;36190;54.980;73.388;2024-02-21T11:34:38;103054.38;;;-14.25;45.21
50292;BME280;36190;54.980;73.388;2024-02-21T11:37:15;103058.00;;;-14.66;45.08
50292;BME280;36190;54.980;73.388;2024-02-21T11:39:43;103053.91;;;-15.06;45.95
50292;BME280;36190;54.980;73.388;2024-02-21T11:42:11;103062.44;;;-15.27;46.17
50292;BME280;36190;54.980;73.388;2024-02-21T11:44:39;103058.22;;;-15.48;46.41
50292;BME280;36190;54.980;73.388;2024-02-21T11:47:08;103055.53;;;-15.70;46.48
50292;BME280;36190;54.980;73.388;2024-02-21T11:49:38;103045.69;;;-16.02;46.52
50292;BME280;36190;54.980;73.388;2024-02-21T11:52:06;103050.47;;;-16.10;46.77
50292;BME280;36190;54.980;73.388;2024-02-21T11:54:35;103052.50;;;-16.22;47.00
50292;BME280;36190;54.980;73.388;2024-02-21T11:57:03;103053.03;;;-16.29;47.35
50292;BME280;36190;54.980;73.388;2024-02-21T11:59:31;103014.09;;;-16.62;47.45
50292;BME280;36190;54.980;73.388;2024-02-21T12:02:00;103050.59;;;-16.46;47.67
50292;BME280;36190;54.980;73.388;2024-02-21T12:04:29;103053.66;;;-16.53;47.76
50292;BME280;36190;54.980;73.388;2024-02-21T12:06:58;103060.63;;;-16.69;47.73
50292;BME280;36190;54.980;73.388;2024-02-21T12:09:26;103053.84;;;-16.87;47.98
50292;BME280;36190;54.980;73.388;2024-02-21T12:11:59;103052.97;;;-17.05;48.14
50292;BME280;36190;54.980;73.388;2024-02-21T12:14:27;103049.53;;;-17.24;48.22
50292;BME280;36190;54.980;73.388;2024-02-21T12:16:55;103054.28;;;-17.32;48.35
50292;BME280;36190;54.980;73.388;2024-02-21T12:19:23;103051.19;;;-17.43;48.80
50292;BME280;36190;54.980;73.388;2024-02-21T12:21:51;103031.63;;;-17.60;48.70
50292;BME280;36190;54.980;73.388;2024-02-21T12:24:22;103048.19;;;-17.52;48.79
50292;BME280;36190;54.980;73.388;2024-02-21T12:26:50;103048.81;;;-17.56;48.90
50292;BME280;36190;54.980;73.388;2024-02-21T12:29:20;103046.94;;;-17.60;48.99
50292;BME280;36190;54.980;73.388;2024-02-21T12:31:47;103045.81;;;-17.65;49.26
50292;BME280;36190;54.980;73.388;2024-02-21T12:34:16;103027.84;;;-17.85;49.31
50292;BME280;36190;54.980;73.388;2024-02-21T12:36:44;103043.91;;;-17.86;49.16